createdAt,value
2023-05-12T00:01:46.535Z,97697.84
2023-05-12T00:06:48.905Z,97697.06
2023-05-12T00:11:51.193Z,97694.13
2023-05-12T00:16:53.635Z,97691.50
2023-05-12T00:21:55.860Z,97685.34
2023-05-12T00:26:58.136Z,97685.66
2023-05-12T00:32:00.718Z,97680.06
2023-05-12T00:37:03.061Z,97683.41
2023-05-12T00:42:05.771Z,97681.81
2023-05-12T00:47:09.260Z,97675.81
2023-05-12T00:52:11.862Z,97677.44
2023-05-12T00:57:14.806Z,97681.72
2023-05-12T01:02:17.384Z,97682.81
2023-05-12T01:07:23.146Z,97680.00
2023-05-12T01:12:27.445Z,97683.44
2023-05-12T01:17:35.211Z,97671.94
2023-05-12T01:22:40.146Z,97670.38
2023-05-12T01:27:43.939Z,97674.69
2023-05-12T01:32:46.431Z,97670.91
2023-05-12T01:37:48.660Z,97673.13
2023-05-12T01:42:50.810Z,97666.47
2023-05-12T01:47:53.658Z,97668.28
2023-05-12T01:52:56.078Z,97672.66
2023-05-12T01:57:58.251Z,97670.06
2023-05-12T02:03:01.170Z,97668.75
2023-05-12T02:08:04.540Z,97677.19
2023-05-12T02:13:07.200Z,97672.88
2023-05-12T02:18:10.449Z,97671.78
2023-05-12T02:23:14.697Z,97676.34
2023-05-12T02:28:16.986Z,97673.34
2023-05-12T02:33:23.359Z,97660.28
2023-05-12T02:38:25.947Z,97670.91
2023-05-12T02:43:28.203Z,97667.16
2023-05-12T02:48:30.782Z,97666.94
2023-05-12T02:53:33.332Z,97670.69
2023-05-12T02:58:35.754Z,97660.03
2023-05-12T03:03:38.078Z,97668.69
2023-05-12T03:08:40.481Z,97670.78
2023-05-12T03:13:42.670Z,97662.63
2023-05-12T03:18:44.829Z,97669.91
2023-05-12T03:23:47.119Z,97681.81
2023-05-12T03:28:49.505Z,97679.78
2023-05-12T03:33:51.613Z,97674.72
2023-05-12T03:38:53.976Z,97670.03
2023-05-12T03:43:56.281Z,97671.28
2023-05-12T03:48:59.133Z,97670.75
2023-05-12T03:54:01.859Z,97671.84
2023-05-12T03:59:04.375Z,97661.94
2023-05-12T04:04:06.659Z,97655.69
2023-05-12T04:09:08.909Z,97662.00
2023-05-12T04:14:11.977Z,97657.44
2023-05-12T04:19:14.078Z,97659.56
2023-05-12T04:24:16.590Z,97661.94
2023-05-12T04:29:19.036Z,97674.75
2023-05-12T04:34:22.419Z,97674.91
2023-05-12T04:39:25.523Z,97673.81
2023-05-12T04:44:28.319Z,97676.72
2023-05-12T04:49:30.919Z,97686.88
2023-05-12T04:54:33.283Z,97682.63
2023-05-12T04:59:36.296Z,97696.28
2023-05-12T05:04:38.909Z,97698.72
2023-05-12T05:09:41.146Z,97686.28
2023-05-12T05:14:43.315Z,97690.38
2023-05-12T05:19:57.286Z,97697.06
2023-05-12T05:25:01.065Z,97699.19
2023-05-12T05:30:03.676Z,97698.88
2023-05-12T05:35:08.529Z,97703.91
2023-05-12T05:40:14.514Z,97709.38
2023-05-12T05:45:17.066Z,97712.56
2023-05-12T05:50:19.730Z,97709.09
2023-05-12T05:55:22.540Z,97714.28
2023-05-12T06:00:25.933Z,97715.81
2023-05-12T06:05:28.566Z,97717.59
2023-05-12T06:10:31.252Z,97719.72
2023-05-12T06:15:34.380Z,97724.28
2023-05-12T06:20:36.622Z,97725.78
2023-05-12T06:25:38.824Z,97726.66
2023-05-12T06:30:41.012Z,97735.63
2023-05-12T06:35:43.316Z,97732.63
2023-05-12T06:40:45.657Z,97735.25
2023-05-12T06:45:48.306Z,97726.00
2023-05-12T06:50:50.462Z,97735.84
2023-05-12T06:55:56.462Z,97732.00
2023-05-12T07:00:59.470Z,97741.38
2023-05-12T07:06:02.256Z,97737.16
2023-05-12T07:11:04.630Z,97741.97
2023-05-12T07:16:07.533Z,97740.25
2023-05-12T07:21:10.519Z,97736.31
2023-05-12T07:26:12.785Z,97735.75
2023-05-12T07:31:15.005Z,97732.41
2023-05-12T07:36:17.201Z,97738.66
2023-05-12T07:41:19.414Z,97736.34
2023-05-12T07:46:21.547Z,97734.78
2023-05-12T07:51:23.989Z,97727.56
2023-05-12T07:56:26.167Z,97726.22
2023-05-12T08:01:28.388Z,97726.69
2023-05-12T08:06:31.941Z,97725.34
2023-05-12T08:11:34.335Z,97725.72
2023-05-12T08:16:36.857Z,97737.03
2023-05-12T08:21:39.082Z,97726.59
2023-05-12T08:26:41.343Z,97728.09
2023-05-12T08:31:43.780Z,97725.13
2023-05-12T08:36:46.126Z,97729.34
2023-05-12T08:42:11.002Z,97732.47
2023-05-12T08:47:15.074Z,97735.75
2023-05-12T08:52:21.856Z,97735.84
2023-05-12T08:57:26.403Z,97734.88
2023-05-12T09:02:44.756Z,97750.19
2023-05-12T09:07:53.571Z,97743.31
2023-05-12T09:13:04.456Z,97737.41
2023-05-12T09:18:06.944Z,97741.25
2023-05-12T09:23:22.202Z,97737.75
2023-05-12T09:28:24.500Z,97733.91
2023-05-12T09:33:26.686Z,97732.13
2023-05-12T09:38:29.057Z,97733.78
2023-05-12T09:43:31.696Z,97738.16
2023-05-12T09:48:34.514Z,97735.34
2023-05-12T09:53:43.285Z,97725.78
2023-05-12T09:58:48.576Z,97730.19
2023-05-12T10:03:57.225Z,97726.66
2023-05-12T10:09:19.549Z,97726.72
2023-05-12T10:14:23.794Z,97730.16
2023-05-12T10:19:28.581Z,97734.38
2023-05-12T10:24:30.824Z,97737.88
2023-05-12T10:29:35.338Z,97733.84
2023-05-12T10:34:42.113Z,97735.41
2023-05-12T10:39:52.538Z,97731.22
2023-05-12T10:44:56.883Z,97732.50
2023-05-12T10:50:00.093Z,97734.16
2023-05-12T10:55:04.530Z,97727.13
2023-05-12T11:00:14.885Z,97730.84
2023-05-12T11:05:18.693Z,97732.81
2023-05-12T11:10:22.080Z,97741.66
2023-05-12T11:15:24.960Z,97745.16
2023-05-12T11:20:29.534Z,97746.00
2023-05-12T11:25:33.516Z,97746.53
2023-05-12T11:30:35.836Z,97758.00
2023-05-12T11:35:38.024Z,97761.81
2023-05-12T11:40:41.499Z,97768.03
2023-05-12T11:45:46.208Z,97767.78
2023-05-12T11:50:51.477Z,97772.31
2023-05-12T11:55:56.852Z,97766.63
2023-05-12T12:01:12.840Z,97772.22
2023-05-12T12:06:15.959Z,97782.44
2023-05-12T12:11:19.949Z,97779.00
2023-05-12T12:16:27.426Z,97776.22
2023-05-12T12:21:29.682Z,97775.84
2023-05-12T12:26:32.060Z,97772.97
2023-05-12T12:31:36.473Z,97776.88
2023-05-12T12:36:38.796Z,97777.22
2023-05-12T12:41:41.295Z,97776.59
2023-05-12T12:46:44.138Z,97767.09
2023-05-12T12:51:47.358Z,97775.50
2023-05-12T12:56:49.636Z,97776.47
2023-05-12T13:01:51.999Z,97766.94
2023-05-12T13:06:54.220Z,97771.25
2023-05-12T13:11:56.559Z,97772.53
2023-05-12T13:16:58.851Z,97768.72
2023-05-12T13:22:01.044Z,97776.94
2023-05-12T13:27:08.311Z,97779.50
2023-05-12T13:32:10.593Z,97778.44
2023-05-12T13:37:12.743Z,97780.72
2023-05-12T13:42:15.133Z,97774.72
2023-05-12T13:47:18.601Z,97779.44
2023-05-12T13:52:21.119Z,97785.50
2023-05-12T13:57:23.356Z,97773.13
2023-05-12T14:02:25.804Z,97780.22
2023-05-12T14:07:29.365Z,97778.16
2023-05-12T14:12:31.988Z,97782.19
2023-05-12T14:17:34.594Z,97776.63
2023-05-12T14:22:36.916Z,97781.78
2023-05-12T14:27:38.980Z,97782.53
2023-05-12T14:32:41.358Z,97779.13
2023-05-12T14:37:43.740Z,97780.44
2023-05-12T14:42:47.464Z,97773.78
2023-05-12T14:47:49.736Z,97779.19
2023-05-12T14:52:52.026Z,97780.50
2023-05-12T14:57:54.212Z,97771.72
2023-05-12T15:02:56.478Z,97773.03
2023-05-12T15:07:58.855Z,97783.63
2023-05-12T15:13:01.183Z,97784.25
2023-05-12T15:18:04.459Z,97797.66
2023-05-12T15:23:07.028Z,97795.50
2023-05-12T15:28:09.132Z,97799.19
2023-05-12T15:33:11.445Z,97796.69
2023-05-12T15:38:13.966Z,97798.78
2023-05-12T15:43:16.142Z,97800.31
2023-05-12T15:48:18.391Z,97800.81
2023-05-12T15:53:20.641Z,97806.63
2023-05-12T15:58:22.732Z,97799.84
2023-05-12T16:03:25.192Z,97800.50
2023-05-12T16:08:27.469Z,97805.44
2023-05-12T16:13:29.638Z,97806.84
2023-05-12T16:18:32.471Z,97804.97
2023-05-12T16:23:34.935Z,97811.75
2023-05-12T16:28:37.502Z,97818.59
2023-05-12T16:33:39.765Z,97810.19
2023-05-12T16:38:41.953Z,97801.94
2023-05-12T16:43:44.188Z,97801.44
2023-05-12T16:48:46.496Z,97803.28
2023-05-12T16:53:48.653Z,97808.66
2023-05-12T16:58:51.206Z,97807.91
2023-05-12T17:03:53.407Z,97810.75
2023-05-12T17:08:55.610Z,97805.16
2023-05-12T17:13:57.970Z,97810.56
2023-05-12T17:24:06.034Z,97824.47
2023-05-12T17:29:08.336Z,97822.94
2023-05-12T17:34:10.521Z,97832.63
2023-05-12T17:39:15.904Z,97840.38
2023-05-12T17:44:18.380Z,97834.19
2023-05-12T17:49:20.600Z,97839.31
2023-05-12T17:54:22.949Z,97843.72
2023-05-12T17:59:25.406Z,97848.56
2023-05-12T18:04:27.633Z,97858.56
2023-05-12T18:09:30.455Z,97861.69
2023-05-12T18:14:33.022Z,97860.59
2023-05-12T18:19:35.679Z,97869.22
2023-05-12T18:24:37.918Z,97865.13
2023-05-12T18:29:40.184Z,97858.94
2023-05-12T18:34:44.196Z,97868.97
2023-05-12T18:39:46.377Z,97866.88
2023-05-12T18:44:48.976Z,97871.56
2023-05-12T18:49:51.224Z,97879.59
2023-05-12T18:54:53.375Z,97887.66
2023-05-12T18:59:55.924Z,97881.59
2023-05-12T19:04:58.087Z,97889.50
2023-05-12T19:10:00.305Z,97889.53
2023-05-12T19:15:02.866Z,97907.66
2023-05-12T19:20:06.370Z,97909.75
2023-05-12T19:25:09.658Z,97915.59
2023-05-12T19:30:14.152Z,97922.53
2023-05-12T19:35:20.084Z,97928.41
2023-05-12T19:40:22.345Z,97931.94
2023-05-12T19:45:24.551Z,97928.47
2023-05-12T19:50:29.679Z,97938.06
2023-05-12T19:55:31.992Z,97936.00
2023-05-12T20:00:34.596Z,97943.53
2023-05-12T20:05:37.843Z,97939.69
2023-05-12T20:10:40.063Z,97942.09
2023-05-12T20:15:44.193Z,97939.81
2023-05-12T20:20:46.310Z,97942.19
2023-05-12T20:25:48.490Z,97940.03
2023-05-12T20:30:50.759Z,97956.41
2023-05-12T20:35:52.973Z,97954.78
2023-05-12T20:40:55.549Z,97954.03
2023-05-12T20:45:57.759Z,97958.00
2023-05-12T20:51:09.344Z,97966.88
2023-05-12T20:56:12.979Z,97968.69
2023-05-12T21:01:18.989Z,97973.06
2023-05-12T21:06:21.163Z,97975.78
2023-05-12T21:11:23.305Z,97973.41
2023-05-12T21:16:25.572Z,97982.50
2023-05-12T21:21:28.877Z,97982.31
2023-05-12T21:26:30.966Z,97981.47
2023-05-12T21:31:33.384Z,97979.31
2023-05-12T21:36:35.834Z,97985.00
2023-05-12T21:41:38.715Z,97989.84
2023-05-12T21:46:41.168Z,97993.13
2023-05-12T21:51:43.386Z,97989.25
2023-05-12T21:56:45.492Z,97990.19
2023-05-12T22:01:47.691Z,97995.69
2023-05-12T22:06:52.007Z,97989.38
2023-05-12T22:11:54.153Z,97989.00
2023-05-12T22:16:56.877Z,97993.28
2023-05-12T22:21:59.141Z,97996.25
2023-05-12T22:27:01.575Z,97989.50
2023-05-12T22:32:04.209Z,98002.03
2023-05-12T22:37:06.462Z,97998.97
2023-05-12T22:42:08.541Z,98003.41
2023-05-12T22:47:10.930Z,98002.84
2023-05-12T22:52:13.255Z,97994.69
2023-05-12T22:57:15.421Z,97993.69
2023-05-12T23:02:17.569Z,97993.03
2023-05-12T23:07:19.742Z,97993.00
2023-05-12T23:12:21.914Z,97994.94
2023-05-12T23:17:24.230Z,97983.28
2023-05-12T23:22:26.552Z,97982.34
2023-05-12T23:27:28.706Z,97978.13
2023-05-12T23:32:31.422Z,97976.56
2023-05-12T23:37:34.358Z,97981.00
2023-05-12T23:42:36.637Z,97972.63
2023-05-12T23:47:39.055Z,97970.31
2023-05-12T23:52:41.403Z,97965.13
2023-05-12T23:57:43.530Z,97963.69
